Ole-arvid Nergaard — LLAY — position and weather

sailwx.info

Track history (hours):
 
Tides and Currents Weather Stations Pressure Air Temp Water Temp Dewpoint Dewpoint Depression Visibility Wind Speed Wind Dir Waves Ship Positions

Ole-arvid Nergaard

Last reported at 2017-Feb-11 20:18 UTC. Time now 2017-Feb-19 18:39 UTC.
Position N 62°03' E 004°27'.

Length 55 m; draft 7.2 m.

Type: Fishing. MMSI: 259656000.

Date/timePositionNaut miles runAvg speedWind from/ knotsBaromVisibWave heightAir tempDewpointWater temp
2017-Feb-11 20:18N 62°03' E 004°27'912.0
2017-Feb-11 19:34N 62°09' E 004°40'1211.9
2017-Feb-11 18:33N 62°16' E 005°00'1111.2
2017-Feb-11 17:33N 62°22' E 005°21'1111.5
2017-Feb-11 16:33N 62°27' E 005°44'1211.9
2017-Feb-11 15:33N 62°29' E 006°09'2 2.3
2017-Feb-11 14:33N 62°29' E 006°13'0 0.0
2017-Feb-11 13:33N 62°29' E 006°13'0 0.4
2017-Feb-11 12:33N 62°29' E 006°13'9 8.8
2017-Feb-11 11:33N 62°37' E 006°20'1212.2
2017-Feb-11 10:34N 62°47' E 006°35'1211.6
2017-Feb-11 09:33N 62°58' E 006°45'1110.9
2017-Feb-11 08:34N 63°08' E 006°53'1110.9
2017-Feb-11 07:34N 63°18' E 007°02'1211.6
2017-Feb-11 06:33N 63°28' E 007°18'1111.5
2017-Feb-11 05:33N 63°36' E 007°35'1211.8
2017-Feb-11 04:34N 63°45' E 007°53'1211.8
2017-Feb-11 03:33N 63°54' E 008°11'9411.3
2017-Feb-10 19:14N 65°07' E 010°27'811.3
2017-Feb-10 18:33N 65°14' E 010°34'1111.1
2017-Feb-10 17:33N 65°24' E 010°45'1211.8
2017-Feb-10 16:33N 65°35' E 010°57'3911.6
2017-Feb-10 13:11N 66°11' E 011°30'711.7
2017-Feb-10 12:34N 66°18' E 011°37'1212.0
2017-Feb-10 11:34N 66°30' E 011°48'1211.5
2017-Feb-10 10:33N 66°39' E 012°03'2311.6
2017-Feb-10 08:33N 66°58' E 012°39'1211.6
2017-Feb-10 07:33N 67°07' E 012°58'1212.1
2017-Feb-10 06:33N 67°17' E 013°16'1212.0
2017-Feb-10 05:34N 67°26' E 013°36'1312.9
2017-Feb-10 04:33N 67°36' E 013°56'1312.9
2017-Feb-10 03:34N 67°46' E 014°18'1312.4
2017-Feb-10 02:33N 67°55' E 014°40'1312.5
2017-Feb-10 01:33N 68°04' E 015°06'1212.1
2017-Feb-10 00:33N 68°11' E 015°30'1212.2
2017-Feb-09 23:33N 68°20' E 015°54'1212.0
2017-Feb-09 22:33N 68°31' E 016°09'9 9.5
2017-Feb-09 21:34N 68°35' E 016°32'1111.3
2017-Feb-09 20:33N 68°45' E 016°42'4 3.7
2017-Feb-09 19:33N 68°48' E 016°34'0 0.0
2017-Feb-09 18:33N 68°48' E 016°34'0 0.0
2017-Feb-09 17:33N 68°48' E 016°34'1 0.9
2017-Feb-09 16:33N 68°47' E 016°33'0 0.0
2017-Feb-09 15:33N 68°47' E 016°33'0 0.0
2017-Feb-09 14:33N 68°47' E 016°33'0 0.0
2017-Feb-09 13:33N 68°47' E 016°33'0 0.0
2017-Feb-09 12:33N 68°47' E 016°33'0 0.0
2017-Feb-09 11:33N 68°47' E 016°33'0 0.0
2017-Feb-09 10:34N 68°47' E 016°33'0 0.0
2017-Feb-09 09:34N 68°47' E 016°33'0 0.0
2017-Feb-09 08:33N 68°47' E 016°33'0 0.0
2017-Feb-09 07:33N 68°47' E 016°33'0 0.0
2017-Feb-09 06:34N 68°47' E 016°33'0 0.0
2017-Feb-09 05:33N 68°47' E 016°33'0 0.0
2017-Feb-09 04:33N 68°47' E 016°33'0 0.0
2017-Feb-09 03:33N 68°47' E 016°33'0 0.0
2017-Feb-09 02:34N 68°47' E 016°33'0 0.0
2017-Feb-09 01:34N 68°47' E 016°33'0 0.0
2017-Feb-09 00:33N 68°47' E 016°33'0 0.0
2017-Feb-08 23:33N 68°47' E 016°33'0 0.0
2017-Feb-08 22:33N 68°47' E 016°33'0 0.0
2017-Feb-08 21:33N 68°47' E 016°33'0 0.0
2017-Feb-08 20:33N 68°47' E 016°33'0 0.0
2017-Feb-08 19:33N 68°47' E 016°33'0 0.0
2017-Feb-08 18:34N 68°47' E 016°33'0 0.0
2017-Feb-08 17:34N 68°47' E 016°33'0 0.0
2017-Feb-08 16:33N 68°47' E 016°33'0 0.0
2017-Feb-08 15:33N 68°47' E 016°33'0 0.0
2017-Feb-08 14:33N 68°47' E 016°33'0 0.0
2017-Feb-08 13:33N 68°47' E 016°33'0 0.0
2017-Feb-08 12:34N 68°47' E 016°33'0 0.0
2017-Feb-08 11:33N 68°47' E 016°33'0 0.0
2017-Feb-08 10:34N 68°47' E 016°33'0 0.0
2017-Feb-08 09:34N 68°47' E 016°33'0 0.0
2017-Feb-08 08:34N 68°47' E 016°33'0 0.0
2017-Feb-08 07:33N 68°47' E 016°33'0 0.1
2017-Feb-08 06:33N 68°47' E 016°33'7 7.2
2017-Feb-08 05:34N 68°52' E 016°48'1110.8
2017-Feb-08 04:34N 68°59' E 017°11'1111.4
2017-Feb-08 03:33N 69°07' E 017°34'1111.0
2017-Feb-08 02:34N 69°12' E 018°00'1010.1
2017-Feb-08 01:34N 69°22' E 018°05'10 9.9
2017-Feb-08 00:33N 69°30' E 018°22'1313.0
2017-Feb-07 23:33N 69°37' E 018°54'1 1.1
2017-Feb-07 22:33N 69°38' E 018°57'0 0.0
2017-Feb-07 21:34N 69°38' E 018°57'0 0.0
2017-Feb-07 20:33N 69°38' E 018°57'0 0.0
2017-Feb-07 19:33N 69°38' E 018°57'0 0.0
2017-Feb-07 18:33N 69°38' E 018°57'0 0.0
2017-Feb-07 17:33N 69°38' E 018°57'0 0.0
2017-Feb-07 16:33N 69°38' E 018°57'0 0.0
2017-Feb-07 15:33N 69°38' E 018°57'0 0.0
2017-Feb-07 14:33N 69°38' E 018°57'0 0.0
2017-Feb-07 13:33N 69°38' E 018°57'0 0.0
2017-Feb-07 12:33N 69°38' E 018°57'0 0.0
2017-Feb-07 11:33N 69°38' E 018°57'0 0.0
2017-Feb-07 10:33N 69°38' E 018°57'0 0.0
2017-Feb-07 09:33N 69°38' E 018°57'0 0.0
2017-Feb-07 08:33N 69°38' E 018°57'0 0.0
2017-Feb-07 07:33N 69°38' E 018°57'0 0.0
2017-Feb-07 06:33N 69°38' E 018°57'2 2.4
2017-Feb-07 05:33N 69°40' E 018°60'1 0.7
2017-Feb-07 04:33N 69°40' E 018°59'0 0.0
2017-Feb-07 03:33N 69°40' E 018°59'0 0.0
2017-Feb-07 02:33N 69°40' E 018°59'0 0.0
2017-Feb-07 01:34N 69°40' E 018°59'0 0.0
2017-Feb-07 00:33N 69°40' E 018°59'0 0.0
2017-Feb-06 23:33N 69°40' E 018°59'0 0.0
2017-Feb-06 22:33N 69°40' E 018°59'0 0.0
2017-Feb-06 21:33N 69°40' E 018°59'0 0.0
2017-Feb-06 20:33N 69°40' E 018°59'0 0.0
2017-Feb-06 19:32N 69°40' E 018°59'0 0.0
2017-Feb-06 18:33N 69°40' E 018°59'0 0.0
2017-Feb-06 17:33N 69°40' E 018°59'0 0.0
2017-Feb-06 16:33N 69°40' E 018°59'0 0.0
2017-Feb-06 15:34N 69°40' E 018°59'6 6.2
2017-Feb-06 14:33N 69°46' E 019°07'6 6.6
2017-Feb-06 13:33N 69°48' E 019°24'3 3.4
2017-Feb-06 12:33N 69°49' E 019°34'4 3.9
2017-Feb-06 11:33N 69°51' E 019°45'3 2.8
2017-Feb-06 10:33N 69°52' E 019°52'3 2.9
2017-Feb-06 09:33N 69°54' E 019°55'3 2.7
2017-Feb-06 08:34N 69°57' E 019°55'3 3.1
2017-Feb-06 07:33N 69°60' E 019°52'4 4.0
2017-Feb-06 06:33N 70°03' E 019°43'3 3.4
2017-Feb-06 05:33N 70°06' E 019°38'4 3.6
2017-Feb-06 04:33N 70°09' E 019°34'6 5.8
2017-Feb-06 03:33N 70°14' E 019°27'1110.8
2017-Feb-06 02:33N 70°24' E 019°17'1211.7
2017-Feb-06 01:33N 70°35' E 019°02'  
2017-Feb-03 20:34N 71°01' E 016°58'9 9.1
2017-Feb-03 19:33N 71°10' E 016°57'3 3.0
2017-Feb-03 18:34N 71°12' E 016°52'3 3.3
2017-Feb-03 17:33N 71°16' E 016°50'1 0.5
2017-Feb-03 16:34N 71°16' E 016°50'4 4.0
2017-Feb-03 15:34N 71°12' E 016°50'4 4.2
2017-Feb-03 14:33N 71°09' E 016°59'3 3.3
2017-Feb-03 13:33N 71°06' E 016°59'1 1.3
2017-Feb-03 12:33N 71°07' E 017°01'1 0.6
2017-Feb-03 11:33N 71°07' E 017°01'2 1.7
2017-Feb-03 10:33N 71°08' E 016°56'3 3.4
2017-Feb-03 09:34N 71°11' E 016°52'3 2.7
2017-Feb-03 08:33N 71°14' E 016°51'4 3.6
2017-Feb-03 07:29N 71°10' E 016°54'3 3.6
2017-Feb-03 06:34N 71°07' E 017°00'3 2.6
2017-Feb-03 05:33N 71°09' E 017°06'3 3.3
2017-Feb-03 04:33N 71°06' E 017°04'3 3.3
2017-Feb-03 03:34N 71°03' E 017°04'3 3.5
2017-Feb-03 02:33N 70°59' E 017°07'4 3.6
2017-Feb-03 01:33N 70°56' E 017°10'4 3.8
2017-Feb-03 00:34N 70°52' E 017°15'4 3.8
2017-Feb-02 23:34N 70°49' E 017°13'1 0.9
2017-Feb-02 22:34N 70°49' E 017°15'4 3.7
2017-Feb-02 21:32N 70°53' E 017°16'11 2.5
2017-Feb-02 17:07N 70°42' E 017°16'2 4.0
2017-Feb-02 16:33N 70°40' E 017°17'4 4.1
2017-Feb-02 15:34N 70°36' E 017°16'3 3.0
2017-Feb-02 14:33N 70°35' E 017°25'3 2.7
2017-Feb-02 13:33N 70°36' E 017°18'3 2.7
2017-Feb-02 12:33N 70°34' E 017°16'4 4.0
2017-Feb-02 11:33N 70°30' E 017°14'4 4.1
2017-Feb-02 10:34N 70°26' E 017°12'4 4.3
2017-Feb-02 09:33N 70°22' E 017°15'4 3.8
2017-Feb-02 08:33N 70°18' E 017°20'7 7.2
2017-Feb-02 07:33N 70°25' E 017°16'7 6.7
2017-Feb-02 06:33N 70°32' E 017°15'3 3.0
2017-Feb-02 05:34N 70°29' E 017°12'4 3.6
2017-Feb-02 04:33N 70°25' E 017°11'4 4.2
2017-Feb-02 03:34N 70°21' E 017°15'5 4.5
2017-Feb-02 02:33N 70°17' E 017°12'4 4.2
2017-Feb-02 01:33N 70°13' E 017°08'4 3.9
2017-Feb-02 00:33N 70°09' E 017°09'4 3.6
2017-Feb-01 23:33N 70°06' E 017°15'9 8.8
2017-Feb-01 22:33N 70°15' E 017°20'1010.0
2017-Feb-01 21:34N 70°25' E 017°21'10 9.7
2017-Feb-01 20:34N 70°34' E 017°17'  
Track history (hours):
 
Tides and Currents Weather Stations Pressure Air Temp Water Temp Dewpoint Dewpoint Depression Visibility Wind Speed Wind Dir Waves Ship Positions

Ole-arvid Nergaard

Last reported at 2017-Feb-11 20:18 UTC. Time now 2017-Feb-19 18:39 UTC.
Position N 62°03' E 004°27'.

Length 55 m; draft 7.2 m.

Type: Fishing. MMSI: 259656000.

Date/timePositionNaut miles runAvg speedWind from/ knotsBaromVisibWave heightAir tempDewpointWater temp
2017-Feb-11 20:18N 62°03' E 004°27'912.0
2017-Feb-11 19:34N 62°09' E 004°40'1211.9
2017-Feb-11 18:33N 62°16' E 005°00'1111.2
2017-Feb-11 17:33N 62°22' E 005°21'1111.5
2017-Feb-11 16:33N 62°27' E 005°44'1211.9
2017-Feb-11 15:33N 62°29' E 006°09'2 2.3
2017-Feb-11 14:33N 62°29' E 006°13'0 0.0
2017-Feb-11 13:33N 62°29' E 006°13'0 0.4
2017-Feb-11 12:33N 62°29' E 006°13'9 8.8
2017-Feb-11 11:33N 62°37' E 006°20'1212.2
2017-Feb-11 10:34N 62°47' E 006°35'1211.6
2017-Feb-11 09:33N 62°58' E 006°45'1110.9
2017-Feb-11 08:34N 63°08' E 006°53'1110.9
2017-Feb-11 07:34N 63°18' E 007°02'1211.6
2017-Feb-11 06:33N 63°28' E 007°18'1111.5
2017-Feb-11 05:33N 63°36' E 007°35'1211.8
2017-Feb-11 04:34N 63°45' E 007°53'1211.8
2017-Feb-11 03:33N 63°54' E 008°11'9411.3
2017-Feb-10 19:14N 65°07' E 010°27'811.3
2017-Feb-10 18:33N 65°14' E 010°34'1111.1
2017-Feb-10 17:33N 65°24' E 010°45'1211.8
2017-Feb-10 16:33N 65°35' E 010°57'3911.6
2017-Feb-10 13:11N 66°11' E 011°30'711.7
2017-Feb-10 12:34N 66°18' E 011°37'1212.0
2017-Feb-10 11:34N 66°30' E 011°48'1211.5
2017-Feb-10 10:33N 66°39' E 012°03'2311.6
2017-Feb-10 08:33N 66°58' E 012°39'1211.6
2017-Feb-10 07:33N 67°07' E 012°58'1212.1
2017-Feb-10 06:33N 67°17' E 013°16'1212.0
2017-Feb-10 05:34N 67°26' E 013°36'1312.9
2017-Feb-10 04:33N 67°36' E 013°56'1312.9
2017-Feb-10 03:34N 67°46' E 014°18'1312.4
2017-Feb-10 02:33N 67°55' E 014°40'1312.5
2017-Feb-10 01:33N 68°04' E 015°06'1212.1
2017-Feb-10 00:33N 68°11' E 015°30'1212.2
2017-Feb-09 23:33N 68°20' E 015°54'1212.0
2017-Feb-09 22:33N 68°31' E 016°09'9 9.5
2017-Feb-09 21:34N 68°35' E 016°32'1111.3
2017-Feb-09 20:33N 68°45' E 016°42'4 3.7
2017-Feb-09 19:33N 68°48' E 016°34'0 0.0
2017-Feb-09 18:33N 68°48' E 016°34'0 0.0
2017-Feb-09 17:33N 68°48' E 016°34'1 0.9
2017-Feb-09 16:33N 68°47' E 016°33'0 0.0
2017-Feb-09 15:33N 68°47' E 016°33'0 0.0
2017-Feb-09 14:33N 68°47' E 016°33'0 0.0
2017-Feb-09 13:33N 68°47' E 016°33'0 0.0
2017-Feb-09 12:33N 68°47' E 016°33'0 0.0
2017-Feb-09 11:33N 68°47' E 016°33'0 0.0
2017-Feb-09 10:34N 68°47' E 016°33'0 0.0
2017-Feb-09 09:34N 68°47' E 016°33'0 0.0
2017-Feb-09 08:33N 68°47' E 016°33'0 0.0
2017-Feb-09 07:33N 68°47' E 016°33'0 0.0
2017-Feb-09 06:34N 68°47' E 016°33'0 0.0
2017-Feb-09 05:33N 68°47' E 016°33'0 0.0
2017-Feb-09 04:33N 68°47' E 016°33'0 0.0
2017-Feb-09 03:33N 68°47' E 016°33'0 0.0
2017-Feb-09 02:34N 68°47' E 016°33'0 0.0
2017-Feb-09 01:34N 68°47' E 016°33'0 0.0
2017-Feb-09 00:33N 68°47' E 016°33'0 0.0
2017-Feb-08 23:33N 68°47' E 016°33'0 0.0
2017-Feb-08 22:33N 68°47' E 016°33'0 0.0
2017-Feb-08 21:33N 68°47' E 016°33'0 0.0
2017-Feb-08 20:33N 68°47' E 016°33'0 0.0
2017-Feb-08 19:33N 68°47' E 016°33'0 0.0
2017-Feb-08 18:34N 68°47' E 016°33'0 0.0
2017-Feb-08 17:34N 68°47' E 016°33'0 0.0
2017-Feb-08 16:33N 68°47' E 016°33'0 0.0
2017-Feb-08 15:33N 68°47' E 016°33'0 0.0
2017-Feb-08 14:33N 68°47' E 016°33'0 0.0
2017-Feb-08 13:33N 68°47' E 016°33'0 0.0
2017-Feb-08 12:34N 68°47' E 016°33'0 0.0
2017-Feb-08 11:33N 68°47' E 016°33'0 0.0
2017-Feb-08 10:34N 68°47' E 016°33'0 0.0
2017-Feb-08 09:34N 68°47' E 016°33'0 0.0
2017-Feb-08 08:34N 68°47' E 016°33'0 0.0
2017-Feb-08 07:33N 68°47' E 016°33'0 0.1
2017-Feb-08 06:33N 68°47' E 016°33'7 7.2
2017-Feb-08 05:34N 68°52' E 016°48'1110.8
2017-Feb-08 04:34N 68°59' E 017°11'1111.4
2017-Feb-08 03:33N 69°07' E 017°34'1111.0
2017-Feb-08 02:34N 69°12' E 018°00'1010.1
2017-Feb-08 01:34N 69°22' E 018°05'10 9.9
2017-Feb-08 00:33N 69°30' E 018°22'1313.0
2017-Feb-07 23:33N 69°37' E 018°54'1 1.1
2017-Feb-07 22:33N 69°38' E 018°57'0 0.0
2017-Feb-07 21:34N 69°38' E 018°57'0 0.0
2017-Feb-07 20:33N 69°38' E 018°57'0 0.0
2017-Feb-07 19:33N 69°38' E 018°57'0 0.0
2017-Feb-07 18:33N 69°38' E 018°57'0 0.0
2017-Feb-07 17:33N 69°38' E 018°57'0 0.0
2017-Feb-07 16:33N 69°38' E 018°57'0 0.0
2017-Feb-07 15:33N 69°38' E 018°57'0 0.0
2017-Feb-07 14:33N 69°38' E 018°57'0 0.0
2017-Feb-07 13:33N 69°38' E 018°57'0 0.0
2017-Feb-07 12:33N 69°38' E 018°57'0 0.0
2017-Feb-07 11:33N 69°38' E 018°57'0 0.0
2017-Feb-07 10:33N 69°38' E 018°57'0 0.0
2017-Feb-07 09:33N 69°38' E 018°57'0 0.0
2017-Feb-07 08:33N 69°38' E 018°57'0 0.0
2017-Feb-07 07:33N 69°38' E 018°57'0 0.0
2017-Feb-07 06:33N 69°38' E 018°57'2 2.4
2017-Feb-07 05:33N 69°40' E 018°60'1 0.7
2017-Feb-07 04:33N 69°40' E 018°59'0 0.0
2017-Feb-07 03:33N 69°40' E 018°59'0 0.0
2017-Feb-07 02:33N 69°40' E 018°59'0 0.0
2017-Feb-07 01:34N 69°40' E 018°59'0 0.0
2017-Feb-07 00:33N 69°40' E 018°59'0 0.0
2017-Feb-06 23:33N 69°40' E 018°59'0 0.0
2017-Feb-06 22:33N 69°40' E 018°59'0 0.0
2017-Feb-06 21:33N 69°40' E 018°59'0 0.0
2017-Feb-06 20:33N 69°40' E 018°59'0 0.0
2017-Feb-06 19:32N 69°40' E 018°59'0 0.0
2017-Feb-06 18:33N 69°40' E 018°59'0 0.0
2017-Feb-06 17:33N 69°40' E 018°59'0 0.0
2017-Feb-06 16:33N 69°40' E 018°59'0 0.0
2017-Feb-06 15:34N 69°40' E 018°59'6 6.2
2017-Feb-06 14:33N 69°46' E 019°07'6 6.6
2017-Feb-06 13:33N 69°48' E 019°24'3 3.4
2017-Feb-06 12:33N 69°49' E 019°34'4 3.9
2017-Feb-06 11:33N 69°51' E 019°45'3 2.8
2017-Feb-06 10:33N 69°52' E 019°52'3 2.9
2017-Feb-06 09:33N 69°54' E 019°55'3 2.7
2017-Feb-06 08:34N 69°57' E 019°55'3 3.1
2017-Feb-06 07:33N 69°60' E 019°52'4 4.0
2017-Feb-06 06:33N 70°03' E 019°43'3 3.4
2017-Feb-06 05:33N 70°06' E 019°38'4 3.6
2017-Feb-06 04:33N 70°09' E 019°34'6 5.8
2017-Feb-06 03:33N 70°14' E 019°27'1110.8
2017-Feb-06 02:33N 70°24' E 019°17'1211.7
2017-Feb-06 01:33N 70°35' E 019°02'  
2017-Feb-03 20:34N 71°01' E 016°58'9 9.1
2017-Feb-03 19:33N 71°10' E 016°57'3 3.0
2017-Feb-03 18:34N 71°12' E 016°52'3 3.3
2017-Feb-03 17:33N 71°16' E 016°50'1 0.5
2017-Feb-03 16:34N 71°16' E 016°50'4 4.0
2017-Feb-03 15:34N 71°12' E 016°50'4 4.2
2017-Feb-03 14:33N 71°09' E 016°59'3 3.3
2017-Feb-03 13:33N 71°06' E 016°59'1 1.3
2017-Feb-03 12:33N 71°07' E 017°01'1 0.6
2017-Feb-03 11:33N 71°07' E 017°01'2 1.7
2017-Feb-03 10:33N 71°08' E 016°56'3 3.4
2017-Feb-03 09:34N 71°11' E 016°52'3 2.7
2017-Feb-03 08:33N 71°14' E 016°51'4 3.6
2017-Feb-03 07:29N 71°10' E 016°54'3 3.6
2017-Feb-03 06:34N 71°07' E 017°00'3 2.6
2017-Feb-03 05:33N 71°09' E 017°06'3 3.3
2017-Feb-03 04:33N 71°06' E 017°04'3 3.3
2017-Feb-03 03:34N 71°03' E 017°04'3 3.5
2017-Feb-03 02:33N 70°59' E 017°07'4 3.6
2017-Feb-03 01:33N 70°56' E 017°10'4 3.8
2017-Feb-03 00:34N 70°52' E 017°15'4 3.8
2017-Feb-02 23:34N 70°49' E 017°13'1 0.9
2017-Feb-02 22:34N 70°49' E 017°15'4 3.7
2017-Feb-02 21:32N 70°53' E 017°16'11 2.5
2017-Feb-02 17:07N 70°42' E 017°16'2 4.0
2017-Feb-02 16:33N 70°40' E 017°17'4 4.1
2017-Feb-02 15:34N 70°36' E 017°16'3 3.0
2017-Feb-02 14:33N 70°35' E 017°25'3 2.7
2017-Feb-02 13:33N 70°36' E 017°18'3 2.7
2017-Feb-02 12:33N 70°34' E 017°16'4 4.0
2017-Feb-02 11:33N 70°30' E 017°14'4 4.1
2017-Feb-02 10:34N 70°26' E 017°12'4 4.3
2017-Feb-02 09:33N 70°22' E 017°15'4 3.8
2017-Feb-02 08:33N 70°18' E 017°20'7 7.2
2017-Feb-02 07:33N 70°25' E 017°16'7 6.7
2017-Feb-02 06:33N 70°32' E 017°15'3 3.0
2017-Feb-02 05:34N 70°29' E 017°12'4 3.6
2017-Feb-02 04:33N 70°25' E 017°11'4 4.2
2017-Feb-02 03:34N 70°21' E 017°15'5 4.5
2017-Feb-02 02:33N 70°17' E 017°12'4 4.2
2017-Feb-02 01:33N 70°13' E 017°08'4 3.9
2017-Feb-02 00:33N 70°09' E 017°09'4 3.6
2017-Feb-01 23:33N 70°06' E 017°15'9 8.8
2017-Feb-01 22:33N 70°15' E 017°20'1010.0
2017-Feb-01 21:34N 70°25' E 017°21'10 9.7
2017-Feb-01 20:34N 70°34' E 017°17'  

Dump ship's entire track history